createdAt,value
2023-05-05T00:02:15.457Z,6.35
2023-05-05T00:04:41.842Z,5.95
2023-05-05T00:07:08.215Z,6.25
2023-05-05T00:09:34.763Z,6.10
2023-05-05T00:12:01.330Z,6.65
2023-05-05T00:14:27.733Z,6.50
2023-05-05T00:16:54.225Z,6.00
2023-05-05T00:19:20.689Z,7.80
2023-05-05T00:21:47.065Z,6.83
2023-05-05T00:24:13.382Z,9.15
2023-05-05T00:26:40.986Z,6.18
2023-05-05T00:29:07.889Z,7.75
2023-05-05T00:31:34.336Z,7.43
2023-05-05T00:34:00.840Z,6.63
2023-05-05T00:36:28.453Z,6.90
2023-05-05T00:38:55.191Z,6.47
2023-05-05T00:41:21.556Z,7.93
2023-05-05T00:43:48.021Z,6.88
2023-05-05T00:46:29.556Z,6.60
2023-05-05T00:48:57.519Z,7.13
2023-05-05T00:51:25.217Z,8.05
2023-05-05T00:53:51.676Z,7.75
2023-05-05T00:56:19.735Z,7.35
2023-05-05T00:58:46.747Z,6.47
2023-05-05T01:01:13.558Z,7.13
2023-05-05T01:03:43.986Z,6.88
2023-05-05T01:06:47.965Z,6.40
2023-05-05T01:09:24.465Z,6.88
2023-05-05T01:12:06.187Z,6.53
2023-05-05T01:14:40.146Z,10.32
2023-05-05T01:17:24.329Z,6.82
2023-05-05T01:20:03.018Z,6.35
2023-05-05T01:22:38.832Z,9.38
2023-05-05T01:25:31.180Z,6.40
2023-05-05T01:28:10.110Z,7.95
2023-05-05T01:30:42.381Z,8.35
2023-05-05T01:33:13.309Z,7.65
2023-05-05T01:35:47.152Z,8.63
2023-05-05T01:38:21.648Z,8.73
2023-05-05T01:40:52.699Z,7.30
2023-05-05T01:43:21.883Z,7.63
2023-05-05T01:45:49.584Z,7.80
2023-05-05T01:48:19.511Z,7.45
2023-05-05T01:50:47.747Z,7.67
2023-05-05T01:53:17.418Z,8.43
2023-05-05T01:55:45.986Z,7.43
2023-05-05T01:58:14.445Z,7.18
2023-05-05T02:00:42.743Z,7.15
2023-05-05T02:03:12.473Z,7.80
2023-05-05T02:05:39.872Z,6.35
2023-05-05T02:08:08.909Z,8.25
2023-05-05T02:10:38.003Z,6.15
2023-05-05T02:13:05.069Z,6.32
2023-05-05T02:15:33.587Z,6.40
2023-05-05T02:18:02.019Z,7.28
2023-05-05T02:20:31.065Z,6.43
2023-05-05T02:22:58.390Z,6.38
2023-05-05T02:25:36.921Z,6.57
2023-05-05T02:28:04.844Z,5.73
2023-05-05T02:30:34.595Z,6.40
2023-05-05T02:33:07.148Z,5.20
2023-05-05T02:35:40.310Z,5.38
2023-05-05T02:38:12.692Z,7.40
2023-05-05T02:40:41.953Z,4.73
2023-05-05T02:43:11.427Z,5.00
2023-05-05T02:45:37.816Z,5.82
2023-05-05T02:48:04.945Z,5.30
2023-05-05T02:50:32.428Z,5.43
2023-05-05T02:53:00.287Z,5.07
2023-05-05T02:55:39.190Z,5.07
2023-05-05T02:58:08.505Z,5.63
2023-05-05T03:00:50.536Z,5.25
2023-05-05T03:03:30.742Z,4.95
2023-05-05T03:06:11.132Z,4.63
2023-05-05T03:08:44.185Z,5.00
2023-05-05T03:11:26.071Z,5.13
2023-05-05T03:14:01.336Z,4.43
2023-05-05T03:16:28.759Z,5.43
2023-05-05T03:18:58.632Z,4.57
2023-05-05T03:21:25.397Z,4.55
2023-05-05T03:23:51.848Z,5.00
2023-05-05T03:26:18.769Z,3.95
2023-05-05T03:28:45.166Z,4.50
2023-05-05T03:31:11.993Z,4.97
2023-05-05T03:33:38.355Z,4.10
2023-05-05T03:36:04.904Z,4.20
2023-05-05T03:38:31.506Z,4.15
2023-05-05T03:41:02.600Z,4.50
2023-05-05T03:43:29.429Z,4.17
2023-05-05T03:45:55.990Z,4.18
2023-05-05T03:48:22.454Z,4.75
2023-05-05T03:50:48.854Z,3.90
2023-05-05T03:53:15.793Z,4.13
2023-05-05T03:55:42.129Z,4.50
2023-05-05T03:58:08.430Z,4.63
2023-05-05T04:00:34.891Z,5.70
2023-05-05T04:03:01.289Z,4.25
2023-05-05T04:05:27.791Z,4.70
2023-05-05T04:07:54.206Z,4.63
2023-05-05T04:10:21.425Z,4.75
2023-05-05T04:12:47.834Z,4.78
2023-05-05T04:15:14.330Z,4.60
2023-05-05T04:17:40.792Z,4.60
2023-05-05T04:20:08.303Z,4.40
2023-05-05T04:22:34.858Z,4.53
2023-05-05T04:25:01.209Z,4.82
2023-05-05T04:27:29.760Z,4.10
2023-05-05T04:29:59.148Z,4.63
2023-05-05T04:32:25.588Z,5.53
2023-05-05T04:34:52.053Z,4.90
2023-05-05T04:37:18.428Z,4.68
2023-05-05T04:39:45.164Z,4.25
2023-05-05T04:42:11.536Z,5.32
2023-05-05T04:44:37.902Z,8.83
2023-05-05T04:47:04.327Z,4.53
2023-05-05T04:49:31.278Z,4.15
2023-05-05T04:51:57.913Z,5.25
2023-05-05T04:54:24.316Z,4.93
2023-05-05T04:56:50.824Z,4.67
2023-05-05T04:59:17.212Z,4.43
2023-05-05T05:01:43.649Z,5.57
2023-05-05T05:04:10.769Z,5.07
2023-05-05T05:06:37.255Z,5.60
2023-05-05T05:09:03.716Z,4.87
2023-05-05T05:11:30.278Z,5.00
2023-05-05T05:13:56.720Z,5.20
2023-05-05T05:16:25.117Z,4.43
2023-05-05T05:18:51.503Z,5.95
2023-05-05T05:21:17.854Z,5.47
2023-05-05T05:23:44.244Z,7.22
2023-05-05T05:26:10.956Z,5.55
2023-05-05T05:28:37.387Z,5.28
2023-05-05T05:31:04.762Z,6.25
2023-05-05T05:33:31.136Z,5.63
2023-05-05T05:35:57.565Z,8.65
2023-05-05T05:38:23.954Z,6.82
2023-05-05T05:40:50.380Z,5.63
2023-05-05T05:43:16.759Z,8.60
2023-05-05T05:45:43.226Z,6.37
2023-05-05T05:48:09.742Z,8.70
2023-05-05T05:50:36.404Z,6.20
2023-05-05T05:53:02.808Z,6.97
2023-05-05T05:55:29.195Z,6.60
2023-05-05T05:57:55.763Z,6.93
2023-05-05T06:00:22.288Z,7.63
2023-05-05T06:02:48.718Z,10.98
2023-05-05T06:05:15.343Z,8.25
2023-05-05T06:07:41.705Z,7.80
2023-05-05T06:10:25.681Z,9.87
2023-05-05T06:12:53.642Z,11.07
2023-05-05T06:15:20.092Z,8.73
2023-05-05T06:17:46.638Z,9.30
2023-05-05T06:20:13.900Z,7.60
2023-05-05T06:22:40.385Z,8.10
2023-05-05T06:25:07.147Z,6.28
2023-05-05T06:27:33.558Z,6.20
2023-05-05T06:29:59.892Z,6.50
2023-05-05T06:32:26.293Z,8.38
2023-05-05T06:34:52.732Z,6.00
2023-05-05T06:37:19.093Z,5.05
2023-05-05T06:39:45.438Z,8.80
2023-05-05T06:42:11.769Z,5.53
2023-05-05T06:44:38.135Z,6.53
2023-05-05T06:47:04.590Z,7.30
2023-05-05T06:49:31.169Z,5.07
2023-05-05T06:51:57.564Z,8.57
2023-05-05T06:54:23.937Z,4.65
2023-05-05T06:56:50.350Z,5.68
2023-05-05T06:59:16.744Z,6.53
2023-05-05T07:01:43.102Z,6.28
2023-05-05T07:04:10.368Z,6.35
2023-05-05T07:06:36.784Z,8.07
2023-05-05T07:09:04.257Z,8.02
2023-05-05T07:11:30.678Z,5.17
2023-05-05T07:13:57.031Z,4.80
2023-05-05T07:16:24.860Z,8.57
2023-05-05T07:18:51.294Z,8.68
2023-05-05T07:21:17.694Z,4.03
2023-05-05T07:23:46.099Z,6.97
2023-05-05T07:26:12.596Z,4.70
2023-05-05T07:28:38.978Z,5.03
2023-05-05T07:31:05.341Z,7.28
2023-05-05T07:33:31.757Z,3.80
2023-05-05T07:35:58.093Z,3.90
2023-05-05T07:38:25.621Z,4.88
2023-05-05T07:40:51.961Z,5.28
2023-05-05T07:43:18.444Z,4.88
2023-05-05T07:45:44.831Z,5.97
2023-05-05T07:48:11.493Z,3.37
2023-05-05T07:50:37.887Z,4.53
2023-05-05T07:53:13.651Z,4.68
2023-05-05T07:55:41.385Z,5.38
2023-05-05T07:58:08.450Z,3.97
2023-05-05T08:00:34.896Z,3.80
2023-05-05T08:03:01.352Z,2.55
2023-05-05T08:05:27.958Z,4.20
2023-05-05T08:07:54.400Z,7.80
2023-05-05T08:10:22.205Z,3.55
2023-05-05T08:12:49.113Z,3.20
2023-05-05T08:15:18.596Z,3.45
2023-05-05T08:17:52.252Z,2.78
2023-05-05T08:20:20.317Z,2.65
2023-05-05T08:22:47.158Z,2.53
2023-05-05T08:25:14.284Z,2.60
2023-05-05T08:27:41.974Z,5.13
2023-05-05T08:30:09.334Z,3.17
2023-05-05T08:32:35.821Z,2.08
2023-05-05T08:35:03.420Z,2.45
2023-05-05T08:37:29.832Z,2.07
2023-05-05T08:39:57.768Z,4.40
2023-05-05T08:42:36.437Z,5.18
2023-05-05T08:45:04.342Z,2.60
2023-05-05T08:47:32.247Z,4.82
2023-05-05T08:49:59.516Z,4.27
2023-05-05T08:52:29.348Z,2.53
2023-05-05T08:55:06.617Z,2.20
2023-05-05T08:57:44.003Z,3.05
2023-05-05T09:00:12.745Z,1.63
2023-05-05T09:02:40.488Z,1.40
2023-05-05T09:05:07.854Z,1.20
2023-05-05T09:07:34.864Z,1.95
2023-05-05T09:10:04.631Z,2.03
2023-05-05T09:12:32.098Z,3.08
2023-05-05T09:14:59.427Z,1.93
2023-05-05T09:17:26.580Z,4.43
2023-05-05T09:20:04.474Z,2.13
2023-05-05T09:22:46.049Z,3.67
2023-05-05T09:25:14.241Z,3.40
2023-05-05T09:27:46.246Z,5.33
2023-05-05T09:30:16.664Z,1.92
2023-05-05T09:32:53.952Z,3.47
2023-05-05T09:35:22.237Z,2.00
2023-05-05T09:37:48.776Z,1.98
2023-05-05T09:40:18.905Z,2.37
2023-05-05T09:42:45.652Z,2.60
2023-05-05T09:45:18.223Z,2.58
2023-05-05T09:47:46.349Z,3.70
2023-05-05T09:50:18.363Z,2.05
2023-05-05T09:52:58.092Z,2.57
2023-05-05T09:55:25.453Z,4.28
2023-05-05T09:57:52.241Z,2.13
2023-05-05T10:00:19.316Z,4.57
2023-05-05T10:02:45.960Z,2.50
2023-05-05T10:05:16.415Z,4.23
2023-05-05T10:07:44.909Z,4.18
2023-05-05T10:10:13.275Z,4.10
2023-05-05T10:12:40.091Z,5.05
2023-05-05T10:15:11.569Z,1.88
2023-05-05T10:18:05.181Z,4.73
2023-05-05T10:20:33.504Z,2.38
2023-05-05T10:23:02.725Z,5.47
2023-05-05T10:25:33.648Z,5.63
2023-05-05T10:28:01.323Z,4.90
2023-05-05T10:30:32.103Z,4.13
2023-05-05T10:33:31.965Z,2.85
2023-05-05T10:36:01.695Z,1.13
2023-05-05T10:38:30.840Z,2.45
2023-05-05T10:41:02.814Z,1.02
2023-05-05T10:43:32.080Z,1.63
2023-05-05T10:45:59.461Z,1.95
2023-05-05T10:48:36.272Z,12.32
2023-05-05T10:51:35.165Z,2.00
2023-05-05T10:54:42.620Z,1.75
2023-05-05T10:57:10.762Z,4.77
2023-05-05T10:59:37.220Z,3.03
2023-05-05T11:02:25.018Z,2.28
2023-05-05T11:05:17.584Z,2.30
2023-05-05T11:07:46.559Z,4.22
2023-05-05T11:10:14.956Z,1.80
2023-05-05T11:12:53.968Z,1.52
2023-05-05T11:15:26.382Z,2.85
2023-05-05T11:17:54.059Z,3.95
2023-05-05T11:20:39.604Z,1.88
2023-05-05T11:23:06.195Z,1.47
2023-05-05T11:25:36.173Z,4.43
2023-05-05T11:28:19.018Z,3.47
2023-05-05T11:30:54.494Z,1.23
2023-05-05T11:33:30.240Z,3.40
2023-05-05T11:36:04.189Z,4.83
2023-05-05T11:38:53.016Z,4.10
2023-05-05T11:41:34.620Z,5.25
2023-05-05T11:44:29.302Z,2.38
2023-05-05T11:46:55.665Z,2.42
2023-05-05T11:49:36.745Z,3.10
2023-05-05T11:52:15.115Z,3.40
2023-05-05T11:54:50.001Z,5.82
2023-05-05T11:57:20.922Z,3.00
2023-05-05T11:59:54.795Z,7.18
2023-05-05T12:02:21.950Z,2.40
2023-05-05T12:04:49.367Z,3.00
2023-05-05T12:07:17.583Z,3.55
2023-05-05T12:09:45.724Z,4.43
2023-05-05T12:12:12.637Z,1.92
2023-05-05T12:14:47.093Z,1.90
2023-05-05T12:17:13.530Z,5.22
2023-05-05T12:19:46.092Z,2.65
2023-05-05T12:22:19.090Z,2.08
2023-05-05T12:24:45.496Z,2.70
2023-05-05T12:27:12.068Z,3.57
2023-05-05T12:29:38.416Z,5.85
2023-05-05T12:32:05.219Z,2.42
2023-05-05T12:34:32.496Z,3.75
2023-05-05T12:36:59.210Z,4.03
2023-05-05T12:39:37.770Z,2.23
2023-05-05T12:42:04.780Z,3.85
2023-05-05T12:44:36.041Z,3.70
2023-05-05T12:47:03.004Z,2.72
2023-05-05T12:49:29.547Z,3.25
2023-05-05T12:51:56.985Z,6.67
2023-05-05T12:54:25.076Z,4.80
2023-05-05T12:56:51.501Z,3.33
2023-05-05T12:59:20.829Z,7.03
2023-05-05T13:01:52.428Z,3.35
2023-05-05T13:04:21.054Z,4.80
2023-05-05T13:06:49.056Z,3.17
2023-05-05T13:09:25.684Z,5.55
2023-05-05T13:11:52.908Z,3.80
2023-05-05T13:14:19.600Z,5.45
2023-05-05T13:16:46.357Z,4.43
2023-05-05T13:19:12.760Z,5.10
2023-05-05T13:21:39.182Z,3.30
2023-05-05T13:24:21.491Z,3.30
2023-05-05T13:26:53.170Z,3.45
2023-05-05T13:29:19.661Z,2.97
2023-05-05T13:31:46.248Z,4.40
2023-05-05T13:34:12.928Z,4.10
2023-05-05T13:36:39.322Z,4.68
2023-05-05T13:39:05.710Z,2.90
2023-05-05T13:41:32.074Z,5.30
2023-05-05T13:43:58.455Z,2.20
2023-05-05T13:46:24.983Z,3.53
2023-05-05T13:48:54.670Z,2.13
2023-05-05T13:51:22.871Z,4.13
2023-05-05T13:53:49.186Z,3.07
2023-05-05T13:56:15.683Z,1.92
2023-05-05T13:58:42.496Z,1.88
2023-05-05T14:01:10.421Z,2.95
2023-05-05T14:03:36.867Z,2.42
2023-05-05T14:06:03.310Z,2.47
2023-05-05T14:08:29.687Z,2.88
2023-05-05T14:10:56.123Z,5.75
2023-05-05T14:13:22.953Z,2.42
2023-05-05T14:15:50.703Z,3.97
2023-05-05T14:18:17.069Z,1.47
2023-05-05T14:20:43.397Z,0.80
2023-05-05T14:23:09.792Z,1.95
2023-05-05T14:25:36.129Z,1.30
2023-05-05T14:28:02.545Z,1.75
2023-05-05T14:30:29.009Z,2.47
2023-05-05T14:32:55.418Z,1.05
2023-05-05T14:35:21.846Z,1.13
2023-05-05T14:37:48.186Z,1.10
2023-05-05T14:40:14.540Z,0.93
2023-05-05T14:42:40.938Z,3.13
2023-05-05T14:45:09.452Z,1.90
2023-05-05T14:47:35.973Z,1.88
2023-05-05T14:50:02.344Z,1.20
2023-05-05T14:52:28.690Z,0.88
2023-05-05T14:54:55.107Z,0.90
2023-05-05T14:57:21.525Z,1.60
2023-05-05T14:59:51.836Z,1.60
2023-05-05T15:02:18.714Z,1.30
2023-05-05T15:04:45.130Z,2.15
2023-05-05T15:07:11.572Z,2.63
2023-05-05T15:09:37.920Z,1.10
2023-05-05T15:12:04.601Z,2.70
2023-05-05T15:14:31.203Z,1.23
2023-05-05T15:16:57.609Z,1.17
2023-05-05T15:19:23.975Z,1.13
2023-05-05T15:21:53.216Z,0.80
2023-05-05T15:24:20.814Z,0.90
2023-05-05T15:26:47.300Z,1.35
2023-05-05T15:29:13.700Z,1.45
2023-05-05T15:31:40.135Z,1.27
2023-05-05T15:34:06.799Z,0.98
2023-05-05T15:36:33.190Z,0.60
2023-05-05T15:38:59.594Z,1.65
2023-05-05T15:41:29.262Z,0.80
2023-05-05T15:43:55.849Z,0.77
2023-05-05T15:46:22.216Z,1.75
2023-05-05T15:48:48.638Z,0.50
2023-05-05T15:51:16.183Z,0.82
2023-05-05T15:53:42.675Z,0.50
2023-05-05T15:56:09.118Z,0.77
2023-05-05T15:58:36.616Z,0.65
2023-05-05T16:01:03.237Z,1.05
2023-05-05T16:03:29.755Z,2.50
2023-05-05T16:05:56.330Z,0.77
2023-05-05T16:08:22.691Z,0.50
2023-05-05T16:10:49.113Z,0.98
2023-05-05T16:13:15.808Z,0.80
2023-05-05T16:15:42.542Z,0.65
2023-05-05T16:18:08.912Z,1.33
2023-05-05T16:20:35.284Z,1.00
2023-05-05T16:23:01.605Z,2.88
2023-05-05T16:25:28.006Z,1.00
2023-05-05T16:27:56.656Z,1.17
2023-05-05T16:30:23.043Z,1.45
2023-05-05T16:32:51.636Z,0.70
2023-05-05T16:35:18.112Z,1.10
2023-05-05T16:37:44.479Z,1.10
2023-05-05T16:40:11.531Z,1.38
2023-05-05T16:42:38.058Z,1.20
2023-05-05T16:45:05.145Z,0.93
2023-05-05T16:47:31.630Z,0.80
2023-05-05T16:49:58.076Z,0.82
2023-05-05T16:52:24.406Z,0.80
2023-05-05T16:54:55.455Z,0.65
2023-05-05T16:57:22.608Z,1.13
2023-05-05T16:59:49.233Z,0.80
2023-05-05T17:02:16.023Z,0.45
2023-05-05T17:04:42.385Z,0.82
2023-05-05T17:07:08.831Z,0.80
2023-05-05T17:09:35.304Z,0.50
2023-05-05T17:12:02.254Z,0.82
2023-05-05T17:14:28.650Z,0.47
2023-05-05T17:16:55.032Z,1.52
2023-05-05T17:19:21.391Z,1.35
2023-05-05T17:21:47.728Z,2.93
2023-05-05T17:24:14.236Z,0.35
2023-05-05T17:26:41.438Z,0.40
2023-05-05T17:29:08.189Z,1.50
2023-05-05T17:31:34.620Z,0.52
2023-05-05T17:34:01.119Z,0.97
2023-05-05T17:36:27.550Z,0.55
2023-05-05T17:38:53.900Z,1.00
2023-05-05T17:41:20.480Z,0.50
2023-05-05T17:43:46.896Z,0.85
2023-05-05T17:46:13.342Z,1.00
2023-05-05T17:48:39.831Z,0.63
2023-05-05T17:51:06.232Z,1.48
2023-05-05T17:53:32.600Z,0.90
2023-05-05T17:58:25.522Z,0.50
2023-05-05T18:00:51.870Z,1.05
2023-05-05T18:03:18.440Z,0.50
2023-05-05T18:05:45.018Z,0.75
2023-05-05T18:08:11.653Z,0.63
2023-05-05T18:10:38.024Z,0.60
2023-05-05T18:13:04.631Z,1.75
2023-05-05T18:15:31.039Z,0.40
2023-05-05T18:17:57.468Z,0.75
2023-05-05T18:20:23.859Z,0.57
2023-05-05T18:22:50.294Z,1.73
2023-05-05T18:25:17.184Z,1.05
2023-05-05T18:27:44.466Z,1.20
2023-05-05T18:30:11.408Z,2.78
2023-05-05T18:32:38.021Z,0.70
2023-05-05T18:35:04.703Z,2.00
2023-05-05T18:37:31.083Z,1.30
2023-05-05T18:39:57.496Z,1.25
2023-05-05T18:42:23.872Z,1.40
2023-05-05T18:44:50.228Z,2.00
2023-05-05T18:47:16.624Z,0.90
2023-05-05T18:49:45.268Z,2.88
2023-05-05T18:52:11.733Z,2.40
2023-05-05T18:54:38.141Z,1.45
2023-05-05T18:57:04.514Z,2.92
2023-05-05T18:59:30.970Z,1.10
2023-05-05T19:01:57.497Z,1.08
2023-05-05T19:04:31.438Z,1.25
2023-05-05T19:07:14.355Z,0.90
2023-05-05T19:09:44.808Z,2.28
2023-05-05T19:12:11.252Z,3.90
2023-05-05T19:14:37.669Z,1.52
2023-05-05T19:17:04.143Z,2.25
2023-05-05T19:19:30.698Z,3.60
2023-05-05T19:21:58.043Z,1.48
2023-05-05T19:24:24.495Z,1.20
2023-05-05T19:26:50.864Z,1.45
2023-05-05T19:29:17.602Z,1.10
2023-05-05T19:31:43.995Z,1.25
2023-05-05T19:34:10.543Z,1.80
2023-05-05T19:36:37.830Z,3.87
2023-05-05T19:39:04.767Z,1.40
2023-05-05T19:41:31.577Z,4.80
2023-05-05T19:43:57.978Z,4.43
2023-05-05T19:46:27.049Z,2.38
2023-05-05T19:48:53.391Z,3.40
2023-05-05T19:51:19.774Z,2.45
2023-05-05T19:53:46.254Z,2.40
2023-05-05T19:56:12.707Z,2.70
2023-05-05T19:58:55.293Z,2.38
2023-05-05T20:01:21.881Z,1.90
2023-05-05T20:03:48.608Z,2.08
2023-05-05T20:06:15.245Z,1.77
2023-05-05T20:08:41.592Z,1.83
2023-05-05T20:11:07.963Z,1.95
2023-05-05T20:13:35.200Z,4.83
2023-05-05T20:16:01.656Z,4.78
2023-05-05T20:18:27.992Z,2.80
2023-05-05T20:20:54.439Z,3.45
2023-05-05T20:23:20.855Z,2.88
2023-05-05T20:25:47.277Z,2.07
2023-05-05T20:28:13.615Z,1.85
2023-05-05T20:30:39.993Z,5.57
2023-05-05T20:33:06.402Z,2.70
2023-05-05T20:35:32.809Z,3.33
2023-05-05T20:37:59.169Z,2.80
2023-05-05T20:40:26.049Z,5.28
2023-05-05T20:42:52.516Z,3.25
2023-05-05T20:45:19.057Z,4.63
2023-05-05T20:47:45.607Z,4.05
2023-05-05T20:50:12.156Z,3.77
2023-05-05T20:52:38.694Z,3.10
2023-05-05T20:55:05.607Z,2.35
2023-05-05T20:57:32.010Z,2.80
2023-05-05T20:59:58.431Z,2.15
2023-05-05T21:02:24.870Z,2.57
2023-05-05T21:04:51.290Z,3.58
2023-05-05T21:07:17.629Z,2.30
2023-05-05T21:09:46.628Z,2.38
2023-05-05T21:12:12.998Z,2.30
2023-05-05T21:14:44.050Z,5.13
2023-05-05T21:17:10.365Z,3.47
2023-05-05T21:19:36.738Z,4.80
2023-05-05T21:22:03.196Z,2.70
2023-05-05T21:24:29.674Z,2.53
2023-05-05T21:26:56.459Z,2.97
2023-05-05T21:29:24.578Z,2.53
2023-05-05T21:31:50.938Z,2.42
2023-05-05T21:34:17.977Z,2.70
2023-05-05T21:36:44.349Z,2.88
2023-05-05T21:39:10.671Z,2.23
2023-05-05T21:41:37.050Z,3.05
2023-05-05T21:44:03.464Z,3.03
2023-05-05T21:46:29.901Z,2.95
2023-05-05T21:48:56.390Z,3.20
2023-05-05T21:51:23.394Z,3.50
2023-05-05T21:53:49.728Z,2.90
2023-05-05T21:56:16.166Z,2.65
2023-05-05T21:58:42.603Z,2.80
2023-05-05T22:01:09.009Z,2.90
2023-05-05T22:03:36.281Z,3.27
2023-05-05T22:06:02.923Z,2.85
2023-05-05T22:08:29.379Z,2.83
2023-05-05T22:10:55.887Z,3.33
2023-05-05T22:13:22.372Z,3.50
2023-05-05T22:15:48.785Z,5.60
2023-05-05T22:18:15.616Z,3.60
2023-05-05T22:20:42.152Z,3.28
2023-05-05T22:23:08.682Z,3.20
2023-05-05T22:25:35.354Z,3.70
2023-05-05T22:28:01.841Z,3.43
2023-05-05T22:30:28.295Z,3.40
2023-05-05T22:32:55.021Z,3.58
2023-05-05T22:35:21.536Z,3.10
2023-05-05T22:37:47.917Z,4.95
2023-05-05T22:40:14.482Z,5.73
2023-05-05T22:42:40.843Z,4.75
2023-05-05T22:45:09.471Z,3.30
2023-05-05T22:47:36.066Z,3.15
2023-05-05T22:50:02.550Z,3.22
2023-05-05T22:52:29.022Z,3.07
2023-05-05T22:54:56.318Z,3.85
2023-05-05T22:57:22.735Z,3.30
2023-05-05T22:59:49.515Z,3.72
2023-05-05T23:02:15.916Z,3.60
2023-05-05T23:04:44.537Z,3.40
2023-05-05T23:07:13.865Z,4.85
2023-05-05T23:09:40.770Z,3.72
2023-05-05T23:12:07.291Z,4.88
2023-05-05T23:14:35.677Z,4.10
2023-05-05T23:17:02.159Z,8.20
2023-05-05T23:19:29.092Z,4.15
2023-05-05T23:21:55.677Z,3.75
2023-05-05T23:24:22.195Z,4.00
2023-05-05T23:26:48.649Z,5.30
2023-05-05T23:29:14.986Z,3.93
2023-05-05T23:31:41.356Z,4.85
2023-05-05T23:34:07.751Z,3.85
2023-05-05T23:36:34.101Z,5.22
2023-05-05T23:39:00.562Z,4.13
2023-05-05T23:41:27.017Z,8.03
2023-05-05T23:43:53.343Z,6.00
2023-05-05T23:46:19.781Z,7.07
2023-05-05T23:48:46.129Z,4.65
2023-05-05T23:51:12.432Z,8.00
2023-05-05T23:53:38.849Z,5.17
2023-05-05T23:56:05.621Z,5.28
2023-05-05T23:58:31.978Z,7.43
